Time;durP1;ratioP1;P1;durP2;ratioP2;P2;SDS_P1;SDS_P2;PMS_P1;PMS_P2;Temp;Humidity;BMP_temperature;BMP_pressure;BME280_temperature;BME280_humidity;BME280_pressure;Samples;Min_cycle;Max_cycle;Signal;HPM_P1;HPM_P2
2022/11/19 00:01:10;;;;;;;11.23;8.63;;;9.40;99.90;;;;;;5096197;28;20306;-74
2022/11/19 00:03:37;;;;;;;12.25;8.80;;;9.40;99.90;;;;;;5114846;28;20516;-74
2022/11/19 00:06:04;;;;;;;13.88;8.00;;;9.40;99.90;;;;;;5114359;28;20203;-73
2022/11/19 00:08:30;;;;;;;11.38;7.38;;;9.40;99.90;;;;;;5114765;28;20172;-74
2022/11/19 00:11:04;;;;;;;11.10;7.80;;;9.40;99.90;;;;;;5114359;28;20329;-73
2022/11/19 00:13:30;;;;;;;10.57;7.10;;;9.30;99.90;;;;;;5114717;28;20178;-73
2022/11/19 00:16:01;;;;;;;13.50;7.33;;;9.30;99.90;;;;;;5113037;28;20199;-73
2022/11/19 00:18:27;;;;;;;10.98;7.40;;;9.30;99.90;;;;;;5096101;28;20416;-73
2022/11/19 00:20:54;;;;;;;11.73;8.30;;;9.30;99.90;;;;;;5095888;28;20242;-73
2022/11/19 00:23:20;;;;;;;9.45;7.18;;;9.30;99.90;;;;;;5095866;28;20184;-73
2022/11/19 00:25:45;;;;;;;12.93;8.13;;;9.30;99.90;;;;;;5113878;28;20245;-73
2022/11/19 00:28:11;;;;;;;10.13;7.40;;;9.30;99.90;;;;;;5096045;28;20230;-73
2022/11/19 00:30:37;;;;;;;12.60;8.67;;;9.30;99.90;;;;;;5114109;28;20192;-73
2022/11/19 00:33:02;;;;;;;11.37;8.00;;;9.30;99.90;;;;;;5095819;28;20179;-73
2022/11/19 00:35:28;;;;;;;12.33;7.63;;;9.30;99.90;;;;;;5117142;28;20192;-73
2022/11/19 00:37:54;;;;;;;13.20;8.50;;;9.40;99.90;;;;;;5118597;28;20183;-73
2022/11/19 00:40:19;;;;;;;14.20;8.93;;;9.40;99.90;;;;;;5116870;28;20733;-73
2022/11/19 00:43:45;;;;;;;11.30;8.17;;;9.40;99.90;;;;;;5099851;28;20180;-74
2022/11/19 00:45:30;;;;;;;11.77;8.23;;;9.40;99.90;;;;;;5118187;28;20191;-73
2022/11/19 00:47:56;;;;;;;12.80;8.27;;;9.40;99.90;;;;;;5117039;28;20243;-73
2022/11/19 00:50:22;;;;;;;11.47;7.30;;;9.40;99.90;;;;;;5118075;28;20183;-73
2022/11/19 00:52:47;;;;;;;11.50;7.20;;;9.50;99.90;;;;;;5116810;28;20187;-73
2022/11/19 00:55:13;;;;;;;11.33;7.80;;;9.50;99.90;;;;;;5117949;28;20693;-73
2022/11/19 00:57:39;;;;;;;11.20;6.80;;;9.40;99.90;;;;;;5118100;28;20179;-73
2022/11/19 01:00:05;;;;;;;9.50;6.23;;;9.40;99.90;;;;;;5117891;28;20239;-75
2022/11/19 01:02:30;;;;;;;7.82;6.18;;;9.40;99.90;;;;;;5118027;28;20168;-73
2022/11/19 01:04:56;;;;;;;7.07;5.53;;;9.30;99.90;;;;;;5117718;28;20745;-73
2022/11/19 01:07:22;;;;;;;6.63;5.50;;;9.30;99.90;;;;;;5117897;28;20197;-73
2022/11/19 01:09:47;;;;;;;7.53;5.70;;;9.20;99.90;;;;;;5117759;28;20226;-73
2022/11/19 01:12:13;;;;;;;11.20;6.40;;;9.10;99.90;;;;;;5117864;28;20186;-73
2022/11/19 01:14:38;;;;;;;10.27;6.20;;;9.10;99.90;;;;;;5116442;28;20683;-73
2022/11/19 01:17:04;;;;;;;8.30;6.17;;;9.10;99.90;;;;;;5099392;28;20199;-74
2022/11/19 01:19:30;;;;;;;8.37;6.43;;;9.00;99.90;;;;;;5117446;28;20196;-73
2022/11/19 01:21:55;;;;;;;9.63;6.27;;;9.00;99.90;;;;;;5116365;28;20171;-73
2022/11/19 01:24:21;;;;;;;7.63;5.83;;;9.00;99.90;;;;;;5115964;28;20661;-73
2022/11/19 01:26:46;;;;;;;7.57;5.97;;;9.00;99.90;;;;;;5117191;28;20223;-73
2022/11/19 01:29:12;;;;;;;8.90;6.80;;;9.00;99.90;;;;;;5117271;28;20172;-73
2022/11/19 01:31:38;;;;;;;6.20;5.27;;;9.00;99.90;;;;;;5117391;28;20172;-73
2022/11/19 01:34:03;;;;;;;9.43;6.43;;;9.00;99.90;;;;;;5116166;28;20782;-73
2022/11/19 01:36:29;;;;;;;8.23;6.50;;;9.00;99.90;;;;;;5117300;28;20180;-73
2022/11/19 01:38:56;;;;;;;9.30;6.97;;;8.90;99.90;;;;;;5117764;28;20176;-72
2022/11/19 01:41:25;;;;;;;10.30;7.10;;;8.90;99.90;;;;;;5116910;28;20561;-73
2022/11/19 01:43:58;;;;;;;7.40;5.88;;;8.90;99.90;;;;;;5117299;28;20179;-74
2022/11/19 01:46:35;;;;;;;8.55;6.13;;;9.00;99.90;;;;;;5116093;28;20175;-73
2022/11/19 01:49:09;;;;;;;8.60;6.10;;;9.00;99.90;;;;;;5117469;28;20250;-73
2022/11/19 01:51:43;;;;;;;8.60;6.30;;;9.00;99.90;;;;;;5117010;28;20164;-73
2022/11/19 01:54:19;;;;;;;8.00;5.78;;;9.00;99.90;;;;;;5115835;28;20186;-73
2022/11/19 01:56:45;;;;;;;7.93;6.88;;;9.00;99.90;;;;;;5115706;28;20265;-73
2022/11/19 01:59:16;;;;;;;8.40;6.80;;;9.00;99.90;;;;;;5098407;28;20184;-73
2022/11/19 02:01:43;;;;;;;8.65;6.85;;;9.00;99.90;;;;;;5098453;28;20211;-73
2022/11/19 02:04:10;;;;;;;10.88;7.10;;;9.00;99.90;;;;;;5117009;28;20564;-73
2022/11/19 02:06:37;;;;;;;8.35;6.50;;;9.00;99.90;;;;;;5116754;28;20171;-73
2022/11/19 02:09:03;;;;;;;8.75;6.55;;;9.00;99.90;;;;;;5098483;28;20219;-73
2022/11/19 02:11:47;;;;;;;9.93;7.78;;;9.00;99.90;;;;;;5116585;28;20675;-73
2022/11/19 02:14:33;;;;;;;7.95;6.57;;;9.00;99.90;;;;;;5116528;28;20176;-73
2022/11/19 02:17:33;;;;;;;10.57;8.00;;;9.00;99.90;;;;;;5116487;28;20216;-73
2022/11/19 02:20:05;;;;;;;7.43;6.32;;;9.00;99.90;;;;;;5116492;28;20699;-73
2022/11/19 02:22:49;;;;;;;8.32;6.55;;;9.00;99.90;;;;;;5116576;28;20207;-73
2022/11/19 02:25:50;;;;;;;9.40;7.18;;;9.00;99.90;;;;;;5114515;28;20758;-73
2022/11/19 02:28:27;;;;;;;10.55;8.10;;;9.00;99.90;;;;;;5098070;28;20184;-73
2022/11/19 02:31:02;;;;;;;10.27;7.10;;;9.00;99.90;;;;;;5097868;28;20672;-73
2022/11/19 02:33:56;;;;;;;8.23;6.68;;;9.00;99.90;;;;;;5114987;28;20198;-73
2022/11/19 02:36:26;;;;;;;11.00;6.95;;;9.00;99.90;;;;;;5093498;28;20616;-73
2022/11/19 02:39:21;;;;;;;10.45;6.78;;;9.00;99.90;;;;;;5116559;28;20207;-73
2022/11/19 02:41:57;;;;;;;8.50;6.82;;;9.00;99.90;;;;;;5091752;28;20203;-73
2022/11/19 02:47:24;;;;;;;8.73;6.78;;;9.00;99.90;;;;;;5116304;28;20187;-73
2022/11/19 02:49:53;;;;;;;9.50;7.20;;;9.00;99.90;;;;;;5114574;28;20206;-73
2022/11/19 02:52:19;;;;;;;10.82;7.38;;;9.00;99.90;;;;;;5115910;28;20233;-73
2022/11/19 02:54:45;;;;;;;10.95;8.40;;;9.00;99.90;;;;;;5097453;28;20709;-73
2022/11/19 02:57:12;;;;;;;10.07;7.73;;;9.00;99.90;;;;;;5115617;28;20202;-73
2022/11/19 03:05:44;;;;;;;10.73;8.10;;;9.00;99.90;;;;;;5115359;28;20570;-74
2022/11/19 03:08:10;;;;;;;10.90;7.60;;;9.00;99.90;;;;;;5115681;28;20179;-73
2022/11/19 03:11:01;;;;;;;9.80;7.60;;;9.00;99.90;;;;;;5097131;28;20561;-73
2022/11/19 03:16:54;;;;;;;13.32;7.43;;;9.00;99.90;;;;;;5115673;28;20167;-73
2022/11/19 03:20:01;;;;;;;12.50;9.07;;;9.00;99.90;;;;;;5066158;28;20212;-73
2022/11/19 03:22:35;;;;;;;12.23;8.70;;;9.00;99.90;;;;;;5035696;28;20235;-73
2022/11/19 03:25:15;;;;;;;14.05;8.25;;;9.00;99.90;;;;;;5052060;28;20321;-73
2022/11/19 03:27:45;;;;;;;8.95;7.43;;;9.00;99.90;;;;;;5092596;28;20195;-73
2022/11/19 03:30:13;;;;;;;11.32;8.55;;;9.00;99.90;;;;;;5115202;28;20216;-73
2022/11/19 03:32:53;;;;;;;12.88;9.02;;;9.00;99.90;;;;;;5113724;28;20588;-73
2022/11/19 03:35:28;;;;;;;14.88;10.20;;;9.00;99.90;;;;;;5096555;28;20206;-73
2022/11/19 03:38:00;;;;;;;13.77;10.27;;;9.00;99.90;;;;;;5115195;28;20666;-73
2022/11/19 03:43:57;;;;;;;11.18;8.77;;;9.00;99.90;;;;;;5115270;28;20275;-73
2022/11/19 03:46:25;;;;;;;14.73;9.30;;;9.00;99.90;;;;;;5113430;28;20167;-73
2022/11/19 03:48:53;;;;;;;13.10;8.93;;;8.90;99.90;;;;;;5113676;28;20182;-73
2022/11/19 03:51:39;;;;;;;28.17;15.00;;;8.90;99.90;;;;;;5114563;28;20702;-73
2022/11/19 03:54:05;;;;;;;85.35;32.80;;;8.90;99.90;;;;;;5115142;28;20172;-73
2022/11/19 03:56:36;;;;;;;140.95;50.70;;;8.90;99.90;;;;;;5114593;28;20213;-73
2022/11/19 03:59:03;;;;;;;89.05;31.48;;;8.80;99.90;;;;;;5114971;28;20175;-73
2022/11/19 04:01:29;;;;;;;67.97;30.85;;;8.80;99.90;;;;;;5114339;28;20683;-73
2022/11/19 04:06:38;;;;;;;64.50;26.60;;;8.70;99.90;;;;;;5114893;28;20194;-73
2022/11/19 04:09:04;;;;;;;94.87;40.30;;;8.70;99.90;;;;;;5114428;28;20240;-73
2022/11/19 04:11:30;;;;;;;81.13;35.37;;;8.60;99.90;;;;;;5114362;28;20182;-73
2022/11/19 04:13:55;;;;;;;69.17;28.77;;;8.60;99.90;;;;;;5096033;28;20640;-73
2022/11/19 04:16:21;;;;;;;46.73;20.60;;;8.50;99.90;;;;;;5114263;28;20188;-73
2022/11/19 04:18:47;;;;;;;36.43;17.80;;;8.50;99.90;;;;;;5096296;28;20184;-73
2022/11/19 04:21:12;;;;;;;27.50;14.70;;;8.40;99.90;;;;;;5114045;28;20211;-73
2022/11/19 04:23:38;;;;;;;26.50;13.40;;;8.40;99.90;;;;;;5114259;28;20290;-73
2022/11/19 04:26:03;;;;;;;19.37;12.73;;;8.40;99.90;;;;;;5092394;28;20700;-73
2022/11/19 04:28:29;;;;;;;24.30;12.50;;;8.30;99.90;;;;;;5094278;28;20189;-73
2022/11/19 04:30:55;;;;;;;22.57;12.87;;;8.30;99.90;;;;;;5092479;28;20282;-74
2022/11/19 04:33:20;;;;;;;21.50;12.23;;;8.30;99.90;;;;;;5094063;28;20549;-73
2022/11/19 04:35:46;;;;;;;20.67;11.40;;;8.20;99.90;;;;;;5093666;28;20192;-74
2022/11/19 04:38:11;;;;;;;19.83;10.80;;;8.20;99.90;;;;;;5094012;28;20172;-73
2022/11/19 04:40:38;;;;;;;18.50;10.07;;;8.20;99.90;;;;;;5093569;28;20322;-73
2022/11/19 04:43:03;;;;;;;13.68;9.70;;;8.20;99.90;;;;;;5092514;28;20549;-73
2022/11/19 04:45:29;;;;;;;11.70;9.70;;;8.10;99.90;;;;;;5092281;28;20200;-73
2022/11/19 04:47:55;;;;;;;14.17;9.40;;;8.10;99.90;;;;;;5093950;28;20188;-73
2022/11/19 04:50:21;;;;;;;12.00;8.50;;;8.10;99.90;;;;;;5093553;28;20392;-73
2022/11/19 04:52:46;;;;;;;12.30;8.63;;;8.00;99.90;;;;;;5093743;28;20184;-73
2022/11/19 04:55:12;;;;;;;11.53;8.10;;;8.00;99.90;;;;;;5093354;28;20199;-73
2022/11/19 04:57:38;;;;;;;16.43;9.50;;;8.00;99.90;;;;;;5093843;28;20295;-73
2022/11/19 05:00:05;;;;;;;14.60;8.80;;;8.00;99.90;;;;;;5093404;28;20476;-73
2022/11/19 05:02:30;;;;;;;12.18;8.52;;;7.90;99.90;;;;;;5093702;28;20618;-73
2022/11/19 05:04:56;;;;;;;10.63;7.87;;;7.90;99.90;;;;;;5093445;28;20200;-74
2022/11/19 05:07:21;;;;;;;8.67;7.67;;;7.90;99.90;;;;;;5092095;28;20723;-73
2022/11/19 05:09:47;;;;;;;12.83;8.83;;;7.90;99.90;;;;;;5092074;28;20196;-73
2022/11/19 05:12:12;;;;;;;12.30;8.90;;;7.90;99.90;;;;;;5093496;28;20179;-73
2022/11/19 05:14:38;;;;;;;12.40;9.37;;;7.90;99.90;;;;;;5093179;28;20192;-73
2022/11/19 05:17:04;;;;;;;12.88;9.05;;;7.90;99.90;;;;;;5093262;28;20538;-73
2022/11/19 05:19:30;;;;;;;13.20;9.70;;;7.90;99.90;;;;;;5093206;28;20192;-73
2022/11/19 05:21:56;;;;;;;10.63;8.67;;;7.80;99.90;;;;;;5095184;28;20408;-73
2022/11/19 05:24:21;;;;;;;13.87;10.20;;;7.80;99.90;;;;;;5097012;28;20193;-73
2022/11/19 05:26:47;;;;;;;12.60;9.10;;;7.80;99.90;;;;;;5095649;28;20263;-73
2022/11/19 05:29:12;;;;;;;12.60;9.10;;;7.80;99.90;;;;;;5096911;28;20180;-73
2022/11/19 05:31:38;;;;;;;12.27;9.43;;;7.80;99.90;;;;;;5097114;28;20168;-73
2022/11/19 05:34:04;;;;;;;14.87;8.67;;;7.80;99.90;;;;;;5097448;28;20648;-73
2022/11/19 05:36:29;;;;;;;15.13;9.20;;;7.80;99.90;;;;;;5097053;28;20246;-73
2022/11/19 05:38:55;;;;;;;13.80;9.40;;;7.80;99.90;;;;;;5095876;28;20180;-73
2022/11/19 05:41:21;;;;;;;15.60;9.97;;;7.80;99.90;;;;;;5096620;28;20468;-74
2022/11/19 05:43:46;;;;;;;13.17;10.00;;;7.80;99.90;;;;;;5095390;28;20176;-73
2022/11/19 05:46:12;;;;;;;15.63;9.97;;;7.70;99.90;;;;;;5096687;28;20231;-73
2022/11/19 05:48:37;;;;;;;14.20;9.87;;;7.70;99.90;;;;;;5095565;28;20631;-73
2022/11/19 05:51:03;;;;;;;14.83;10.33;;;7.70;99.90;;;;;;5096606;28;20200;-73
2022/11/19 05:53:28;;;;;;;13.67;9.93;;;7.70;99.90;;;;;;5095489;28;20184;-73
2022/11/19 05:55:54;;;;;;;15.13;10.80;;;7.60;99.90;;;;;;5095226;28;20196;-73
2022/11/19 05:58:20;;;;;;;14.57;9.73;;;7.60;99.90;;;;;;5096642;28;20177;-73
2022/11/19 06:00:45;;;;;;;14.37;10.00;;;7.70;99.90;;;;;;5096293;28;20213;-73
2022/11/19 06:03:11;;;;;;;16.50;10.70;;;7.60;99.90;;;;;;5096420;28;20511;-73
2022/11/19 06:05:37;;;;;;;14.57;10.77;;;7.60;99.90;;;;;;5094977;28;20200;-73
2022/11/19 06:08:02;;;;;;;14.23;10.03;;;7.60;99.90;;;;;;5094938;28;20192;-73
2022/11/19 06:10:28;;;;;;;17.40;11.20;;;7.60;99.90;;;;;;5096117;28;20279;-73
2022/11/19 06:12:54;;;;;;;17.97;11.50;;;7.60;99.90;;;;;;5094875;28;20520;-73
2022/11/19 06:15:19;;;;;;;18.90;13.27;;;7.60;99.90;;;;;;5094848;28;20298;-73
2022/11/19 06:17:45;;;;;;;20.77;14.27;;;7.60;99.90;;;;;;5096407;28;20176;-73
2022/11/19 06:20:10;;;;;;;19.90;12.43;;;7.60;99.90;;;;;;5094647;28;20212;-73
2022/11/19 06:22:37;;;;;;;24.57;15.20;;;7.60;99.90;;;;;;5096278;28;20175;-73
2022/11/19 06:25:06;;;;;;;21.45;14.30;;;7.60;99.90;;;;;;5097431;28;20223;-73
2022/11/19 06:27:33;;;;;;;17.63;13.15;;;7.60;99.90;;;;;;5116559;28;20180;-73
2022/11/19 06:29:59;;;;;;;19.65;13.18;;;7.70;99.90;;;;;;5116231;28;20664;-73
2022/11/19 06:32:24;;;;;;;19.00;13.40;;;7.70;99.90;;;;;;5115923;28;20296;-73
2022/11/19 06:34:50;;;;;;;19.90;12.00;;;7.70;99.90;;;;;;5097824;28;20561;-73
2022/11/19 06:37:16;;;;;;;20.80;12.77;;;7.70;99.90;;;;;;5116221;28;20186;-73
2022/11/19 06:39:41;;;;;;;18.20;11.57;;;7.70;99.90;;;;;;5097702;28;20249;-74
2022/11/19 06:44:51;;;;;;;14.63;11.77;;;7.70;99.90;;;;;;5116019;28;20249;-74
2022/11/19 06:47:17;;;;;;;17.67;12.27;;;7.70;99.90;;;;;;5115815;28;20537;-73
2022/11/19 06:49:42;;;;;;;22.40;15.00;;;7.70;99.90;;;;;;5097646;28;20196;-74
2022/11/19 06:52:08;;;;;;;22.80;14.97;;;7.70;99.90;;;;;;5097584;28;20190;-74
2022/11/19 06:54:33;;;;;;;28.10;17.90;;;7.70;99.90;;;;;;5116074;28;20671;-73
2022/11/19 06:56:59;;;;;;;26.87;19.23;;;7.80;99.90;;;;;;5097442;28;20176;-73
2022/11/19 06:59:25;;;;;;;23.67;15.37;;;7.80;99.90;;;;;;5097330;28;20200;-73
2022/11/19 07:01:50;;;;;;;16.60;11.60;;;7.80;99.90;;;;;;5115512;28;20435;-73
2022/11/19 07:04:16;;;;;;;17.70;11.63;;;7.80;99.90;;;;;;5097294;28;20176;-73
2022/11/19 07:06:42;;;;;;;15.50;11.03;;;7.90;99.90;;;;;;5097429;28;20182;-73
2022/11/19 07:09:07;;;;;;;14.20;11.47;;;7.90;99.90;;;;;;5097315;28;20423;-74
2022/11/19 07:11:34;;;;;;;17.27;11.40;;;7.90;99.90;;;;;;5097159;28;20581;-73
2022/11/19 07:14:01;;;;;;;15.50;10.20;;;7.90;99.90;;;;;;5115831;28;20278;-73
2022/11/19 07:16:33;;;;;;;17.35;12.15;;;7.90;99.90;;;;;;5115369;28;20651;-73
2022/11/19 07:19:04;;;;;;;15.85;11.77;;;7.90;99.90;;;;;;5097180;28;20192;-73
2022/11/19 07:21:30;;;;;;;19.77;13.25;;;7.90;99.90;;;;;;5115047;28;20239;-73
2022/11/19 07:23:57;;;;;;;18.52;12.73;;;8.00;99.90;;;;;;5097205;28;20633;-74
2022/11/19 07:26:24;;;;;;;20.55;12.20;;;8.00;99.90;;;;;;5096777;28;20572;-73
2022/11/19 07:28:50;;;;;;;18.42;12.80;;;8.00;99.90;;;;;;5096899;28;20184;-74
2022/11/19 07:31:15;;;;;;;17.90;11.97;;;8.10;99.90;;;;;;5096751;28;20252;-74
2022/11/19 07:33:42;;;;;;;20.65;12.70;;;8.10;99.90;;;;;;5115502;28;20483;-73
2022/11/19 07:36:10;;;;;;;48.47;23.73;;;8.10;99.90;;;;;;5096706;28;20610;-73
2022/11/19 07:38:37;;;;;;;44.22;23.13;;;8.10;99.90;;;;;;5096840;28;20175;-73
2022/11/19 07:42:48;;;;;;;95.80;32.85;;;8.20;99.90;;;;;;5114674;28;20271;-73
2022/11/19 07:43:50;;;;;;;42.08;18.95;;;8.20;99.90;;;;;;5113501;28;20236;-73
2022/11/19 07:46:15;;;;;;;30.70;18.15;;;8.20;99.90;;;;;;5114728;28;20196;-73
2022/11/19 07:48:41;;;;;;;45.17;20.00;;;8.30;99.90;;;;;;5096313;28;20183;-73
2022/11/19 07:51:07;;;;;;;32.03;16.17;;;8.30;99.90;;;;;;5096352;28;20221;-73
2022/11/19 07:53:32;;;;;;;35.40;17.10;;;8.40;99.90;;;;;;5096435;28;20182;-72
2022/11/19 07:56:02;;;;;;;55.90;25.03;;;8.40;99.90;;;;;;5114631;28;20262;-72
2022/11/19 07:58:27;;;;;;;29.58;14.45;;;8.50;99.90;;;;;;5114879;28;20594;-73
2022/11/19 08:00:53;;;;;;;27.20;14.97;;;8.50;99.90;;;;;;5114552;28;20294;-73
2022/11/19 08:03:19;;;;;;;24.50;14.77;;;8.60;99.90;;;;;;5096511;28;20179;-73
2022/11/19 08:05:45;;;;;;;23.47;14.13;;;8.60;99.90;;;;;;5096054;28;20251;-74
2022/11/19 08:08:10;;;;;;;35.13;17.53;;;8.70;99.90;;;;;;5114582;28;20183;-74
2022/11/19 08:10:36;;;;;;;36.87;17.40;;;8.70;99.90;;;;;;5114295;28;20278;-73
2022/11/19 08:13:02;;;;;;;40.73;21.03;;;8.70;99.90;;;;;;5114597;28;20624;-73
2022/11/19 08:15:29;;;;;;;30.73;18.23;;;8.80;99.90;;;;;;5114217;28;20218;-73
2022/11/19 08:18:14;;;;;;;27.60;16.60;;;8.80;99.90;;;;;;5095976;28;20260;-73
2022/11/19 08:20:44;;;;;;;29.30;18.67;;;8.90;99.90;;;;;;5095935;28;20227;-73
2022/11/19 08:23:11;;;;;;;26.85;16.13;;;9.10;99.90;;;;;;5114581;28;20526;-73
2022/11/19 08:25:37;;;;;;;27.33;14.82;;;9.20;99.90;;;;;;5095824;28;20232;-73
2022/11/19 08:28:04;;;;;;;21.30;14.35;;;9.30;99.90;;;;;;5113989;28;20215;-73
2022/11/19 08:30:30;;;;;;;14.50;11.65;;;9.40;99.90;;;;;;5095871;28;20291;-73
2022/11/19 08:32:56;;;;;;;16.40;11.20;;;9.50;99.90;;;;;;5113784;28;20175;-73
2022/11/19 08:35:23;;;;;;;20.00;12.55;;;9.60;99.90;;;;;;5094342;28;20203;-73
2022/11/19 08:37:50;;;;;;;18.33;11.45;;;9.70;99.90;;;;;;5112122;28;20225;-73
2022/11/19 08:40:16;;;;;;;17.40;12.73;;;9.80;99.90;;;;;;5093540;28;20711;-73
2022/11/19 08:43:00;;;;;;;15.38;11.27;;;9.80;99.90;;;;;;5093614;28;20182;-73
2022/11/19 08:45:32;;;;;;;19.48;13.07;;;9.90;99.90;;;;;;5093615;28;20668;-73
2022/11/19 08:48:00;;;;;;;22.08;12.43;;;9.90;99.90;;;;;;5112008;28;20176;-73
2022/11/19 08:50:27;;;;;;;17.38;13.23;;;10.00;99.90;;;;;;5093628;28;20191;-75
2022/11/19 08:52:57;;;;;;;19.85;12.48;;;10.10;99.90;;;;;;5095758;28;20180;-73
2022/11/19 08:55:25;;;;;;;16.45;12.00;;;10.20;99.90;;;;;;5114831;28;20660;-73
2022/11/19 08:57:50;;;;;;;16.92;12.05;;;10.30;99.90;;;;;;5118287;28;20183;-73
2022/11/19 09:00:17;;;;;;;15.97;12.03;;;10.40;99.90;;;;;;5117789;28;20207;-73
2022/11/19 09:02:42;;;;;;;16.42;11.90;;;10.40;99.90;;;;;;5118126;28;20172;-73
2022/11/19 09:05:08;;;;;;;16.70;12.60;;;10.40;99.90;;;;;;5099536;28;20247;-73
2022/11/19 09:07:34;;;;;;;17.80;12.70;;;10.40;99.90;;;;;;5117833;28;20184;-73
2022/11/19 09:09:59;;;;;;;18.27;12.30;;;10.40;99.90;;;;;;5099502;28;20434;-73
2022/11/19 09:12:28;;;;;;;15.80;11.30;;;10.40;99.90;;;;;;5117829;28;20176;-73
2022/11/19 09:14:54;;;;;;;19.25;12.85;;;10.40;99.90;;;;;;5117593;28;20196;-73
2022/11/19 09:17:20;;;;;;;17.67;13.00;;;10.40;99.90;;;;;;5099429;28;20179;-74
2022/11/19 09:19:45;;;;;;;17.80;13.67;;;10.40;99.90;;;;;;5099102;28;20249;-73
2022/11/19 09:22:11;;;;;;;16.27;11.37;;;10.40;99.90;;;;;;5117515;28;20182;-73
2022/11/19 09:24:37;;;;;;;17.90;11.93;;;10.40;99.90;;;;;;5117550;28;20261;-74
2022/11/19 09:27:02;;;;;;;16.90;11.70;;;10.40;99.90;;;;;;5117346;28;20227;-73
2022/11/19 09:29:28;;;;;;;17.20;12.07;;;10.50;99.90;;;;;;5098830;28;20199;-73
2022/11/19 09:31:53;;;;;;;17.47;12.80;;;10.40;99.90;;;;;;5117440;28;20207;-73
2022/11/19 09:34:19;;;;;;;13.33;11.17;;;10.40;99.90;;;;;;5117236;28;20195;-73
2022/11/19 09:36:45;;;;;;;19.67;13.93;;;10.40;99.90;;;;;;5099116;28;20184;-73
2022/11/19 09:39:10;;;;;;;19.33;13.67;;;10.40;99.90;;;;;;5117629;28;20412;-73
2022/11/19 09:41:48;;;;;;;21.03;15.17;;;10.50;99.90;;;;;;5098803;28;20244;-73
2022/11/19 09:44:55;;;;;;;19.52;13.18;;;10.70;99.90;;;;;;5098924;28;20179;-73
2022/11/19 09:47:50;;;;;;;22.88;17.00;;;10.80;99.90;;;;;;5098861;28;20236;-73
2022/11/19 09:50:21;;;;;;;24.13;19.63;;;10.90;99.90;;;;;;5098808;28;20759;-73
2022/11/19 09:52:58;;;;;;;21.70;15.35;;;11.00;99.90;;;;;;5117169;28;20250;-73
2022/11/19 09:55:42;;;;;;;15.88;12.98;;;11.00;99.90;;;;;;5098610;28;20730;-73
2022/11/19 09:58:35;;;;;;;18.17;12.20;;;11.10;99.90;;;;;;5098583;28;20176;-73
2022/11/19 10:01:01;;;;;;;20.35;15.15;;;11.10;99.90;;;;;;5105672;28;20483;-74
2022/11/19 10:03:26;;;;;;;16.77;11.77;;;11.20;99.90;;;;;;5117123;28;20250;-73
2022/11/19 10:06:18;;;;;;;18.97;15.30;;;11.20;99.90;;;;;;5098524;28;20577;-73
2022/11/19 10:09:10;;;;;;;16.57;12.00;;;11.30;99.90;;;;;;5097771;28;20462;-73
2022/11/19 10:11:57;;;;;;;16.20;12.07;;;11.30;99.90;;;;;;5098361;28;20420;-73
2022/11/19 10:14:50;;;;;;;19.20;13.90;;;11.30;99.90;;;;;;5116642;28;20301;-73
2022/11/19 10:17:30;;;;;;;19.35;13.15;;;11.30;99.90;;;;;;5116489;28;20769;-74
2022/11/19 10:20:17;;;;;;;18.02;13.07;;;11.30;99.90;;;;;;5116515;28;20209;-73
2022/11/19 10:22:53;;;;;;;21.63;14.90;;;11.30;99.90;;;;;;5098100;28;20214;-73
2022/11/19 10:25:22;;;;;;;20.23;13.10;;;11.40;99.90;;;;;;5116018;28;20227;-73
2022/11/19 10:27:51;;;;;;;16.13;12.10;;;11.50;99.90;;;;;;5116479;28;20427;-73
2022/11/19 10:30:21;;;;;;;17.33;11.82;;;11.50;99.90;;;;;;5116178;28;20424;-73
2022/11/19 10:32:52;;;;;;;25.27;17.00;;;11.60;99.90;;;;;;5116140;28;20217;-74
2022/11/19 10:35:23;;;;;;;35.30;27.13;;;11.50;99.90;;;;;;5097800;28;20949;-73
2022/11/19 10:37:58;;;;;;;19.13;15.27;;;11.60;99.90;;;;;;5097866;28;20421;-73
2022/11/19 10:40:39;;;;;;;18.97;14.47;;;11.50;99.90;;;;;;5097798;28;20491;-73
2022/11/19 10:43:23;;;;;;;18.83;14.30;;;11.60;99.90;;;;;;5097942;28;20427;-74
2022/11/19 10:45:49;;;;;;;20.30;13.60;;;11.60;99.90;;;;;;5116065;28;20840;-73
2022/11/19 10:48:22;;;;;;;19.67;13.87;;;11.60;99.90;;;;;;5097680;28;20416;-73
2022/11/19 10:50:49;;;;;;;20.50;12.87;;;11.70;99.90;;;;;;5115986;28;20692;-73
2022/11/19 10:53:29;;;;;;;18.45;12.77;;;11.70;99.90;;;;;;5115983;28;20519;-74
2022/11/19 10:56:01;;;;;;;17.40;12.70;;;11.70;99.90;;;;;;5115598;28;20240;-73
2022/11/19 10:58:48;;;;;;;17.33;12.40;;;11.60;99.90;;;;;;5115883;28;20767;-73
2022/11/19 11:01:36;;;;;;;20.97;13.67;;;11.60;99.90;;;;;;5097044;28;20543;-73
2022/11/19 11:04:23;;;;;;;22.90;14.00;;;11.60;99.90;;;;;;5115982;28;20433;-73
2022/11/19 11:06:48;;;;;;;21.10;14.67;;;11.60;99.90;;;;;;5097196;28;20404;-74
2022/11/19 11:09:33;;;;;;;19.30;13.03;;;11.60;99.90;;;;;;5097261;28;20408;-74
2022/11/19 11:15:15;;;;;;;18.80;12.40;;;11.60;99.90;;;;;;5115349;28;20199;-73
2022/11/19 11:17:43;;;;;;;18.27;13.30;;;11.60;99.90;;;;;;5115585;28;20985;-73
2022/11/19 11:20:15;;;;;;;18.13;12.70;;;11.70;99.90;;;;;;5095616;28;20817;-74
2022/11/19 11:22:42;;;;;;;18.77;12.70;;;11.70;99.90;;;;;;5097046;28;20469;-73
2022/11/19 11:25:23;;;;;;;19.23;13.97;;;11.70;99.90;;;;;;5114913;28;20444;-73
2022/11/19 11:28:13;;;;;;;19.30;13.20;;;11.60;99.90;;;;;;5096849;28;20436;-73
2022/11/19 11:30:53;;;;;;;18.30;12.87;;;11.60;99.90;;;;;;5102913;28;20858;-74
2022/11/19 11:33:31;;;;;;;17.63;13.03;;;11.60;99.90;;;;;;5096926;28;20493;-74
2022/11/19 11:36:08;;;;;;;15.77;11.53;;;11.60;99.90;;;;;;5114957;28;20423;-74
2022/11/19 11:38:44;;;;;;;18.27;12.60;;;11.60;99.90;;;;;;5115262;28;20432;-73
2022/11/19 11:41:17;;;;;;;18.40;13.70;;;11.60;99.90;;;;;;5096507;28;20558;-73
2022/11/19 11:44:02;;;;;;;15.10;11.57;;;11.50;99.90;;;;;;5096465;28;20484;-73
2022/11/19 11:46:51;;;;;;;20.30;13.70;;;11.50;99.90;;;;;;5096489;28;20919;-73
2022/11/19 11:49:27;;;;;;;19.23;13.77;;;11.50;99.90;;;;;;5096502;28;20948;-73
2022/11/19 11:52:02;;;;;;;20.10;12.80;;;11.50;99.90;;;;;;5096472;28;20518;-73
2022/11/19 11:54:27;;;;;;;19.97;13.30;;;11.50;99.90;;;;;;5114619;28;20434;-74
2022/11/19 11:57:06;;;;;;;20.13;13.80;;;11.40;99.90;;;;;;5114546;28;20408;-73
2022/11/19 11:59:32;;;;;;;21.00;13.90;;;11.40;99.90;;;;;;5114381;28;20179;-73
2022/11/19 12:02:04;;;;;;;20.70;14.07;;;11.40;99.90;;;;;;5105211;28;20802;-74
2022/11/19 12:04:30;;;;;;;19.30;12.13;;;11.40;99.90;;;;;;5094243;28;20424;-73
2022/11/19 12:07:11;;;;;;;20.60;13.23;;;11.30;99.90;;;;;;5094109;28;20491;-73
2022/11/19 12:09:53;;;;;;;17.93;13.00;;;11.30;99.90;;;;;;5095518;28;20447;-73
2022/11/19 12:12:39;;;;;;;19.10;12.63;;;11.30;99.90;;;;;;5074509;28;20987;-73
2022/11/19 12:15:31;;;;;;;17.57;12.23;;;11.30;99.90;;;;;;5074807;28;20433;-73
2022/11/19 12:18:16;;;;;;;20.03;13.20;;;11.20;99.90;;;;;;5075073;28;20427;-73
2022/11/19 12:20:56;;;;;;;18.67;12.13;;;11.20;99.90;;;;;;5075600;28;20473;-73
2022/11/19 12:23:42;;;;;;;18.67;12.95;;;11.10;99.90;;;;;;5094326;28;20172;-73
2022/11/19 12:26:31;;;;;;;20.08;12.60;;;11.10;99.90;;;;;;5093890;28;20724;-73
2022/11/19 12:29:18;;;;;;;22.00;14.07;;;11.10;99.90;;;;;;5075953;28;20193;-73
2022/11/19 12:32:15;;;;;;;20.08;13.18;;;11.00;99.90;;;;;;5075395;28;20175;-74
2022/11/19 12:35:06;;;;;;;25.00;14.75;;;11.10;99.90;;;;;;5093943;28;20200;-73
2022/11/19 12:38:12;;;;;;;23.55;15.38;;;11.00;99.90;;;;;;5075709;28;20184;-73
2022/11/19 12:40:48;;;;;;;22.70;15.30;;;11.00;99.90;;;;;;5076026;28;20223;-73
2022/11/19 12:43:35;;;;;;;23.38;14.50;;;11.00;99.90;;;;;;5094078;28;20184;-73
2022/11/19 12:46:24;;;;;;;24.08;15.82;;;10.90;99.90;;;;;;5093618;28;20562;-74
2022/11/19 12:49:02;;;;;;;22.17;15.25;;;10.90;99.90;;;;;;5106945;28;20184;-73
2022/11/19 12:51:51;;;;;;;22.08;15.63;;;10.90;99.90;;;;;;5113322;28;20213;-73
2022/11/19 12:54:29;;;;;;;22.33;14.95;;;10.80;99.90;;;;;;5113726;28;20568;-73
2022/11/19 12:57:20;;;;;;;20.77;13.20;;;10.80;99.90;;;;;;5095624;28;20171;-74
2022/11/19 13:00:18;;;;;;;21.98;15.02;;;10.70;99.90;;;;;;5113640;28;20211;-73
2022/11/19 13:02:53;;;;;;;20.83;14.35;;;10.70;99.90;;;;;;5077744;28;20673;-73
2022/11/19 13:05:41;;;;;;;21.85;15.32;;;10.70;99.90;;;;;;5094931;28;20203;-73
2022/11/19 13:08:18;;;;;;;21.17;16.80;;;10.70;99.90;;;;;;5104552;28;20716;-74
2022/11/19 13:10:59;;;;;;;20.88;14.35;;;10.60;99.90;;;;;;5111959;28;20188;-73
2022/11/19 13:13:28;;;;;;;23.25;15.90;;;10.60;99.90;;;;;;5111678;28;20526;-74
2022/11/19 13:16:01;;;;;;;22.98;15.57;;;10.60;99.90;;;;;;5094461;28;20218;-73
2022/11/19 13:18:31;;;;;;;23.35;15.57;;;10.50;99.90;;;;;;5111954;28;20656;-74
2022/11/19 13:21:06;;;;;;;25.38;15.68;;;10.50;99.90;;;;;;5094869;28;20239;-73
2022/11/19 13:23:44;;;;;;;24.58;15.48;;;10.50;99.90;;;;;;5093845;28;20201;-74